createdAt,value
2018-07-24T00:02:15.156Z,13.98
2018-07-24T00:04:43.605Z,12.70
2018-07-24T00:07:12.762Z,12.63
2018-07-24T00:09:41.220Z,13.50
2018-07-24T00:12:09.688Z,13.15
2018-07-24T00:14:38.097Z,13.88
2018-07-24T00:17:06.539Z,14.30
2018-07-24T00:19:34.985Z,14.47
2018-07-24T00:22:04.235Z,15.40
2018-07-24T00:24:33.128Z,12.88
2018-07-24T00:27:01.697Z,14.00
2018-07-24T00:29:30.196Z,13.55
2018-07-24T00:31:58.675Z,14.18
2018-07-24T00:34:27.123Z,13.15
2018-07-24T00:36:56.904Z,11.95
2018-07-24T00:39:25.535Z,11.80
2018-07-24T00:41:53.949Z,11.65
2018-07-24T00:44:22.360Z,13.10
2018-07-24T00:46:50.801Z,10.50
2018-07-24T00:49:19.249Z,10.65
2018-07-24T00:51:48.435Z,15.13
2018-07-24T00:54:16.980Z,13.00
2018-07-24T00:56:45.820Z,12.93
2018-07-24T00:59:14.624Z,12.73
2018-07-24T01:01:43.183Z,13.05
2018-07-24T01:04:11.755Z,16.73
2018-07-24T01:06:40.566Z,13.10
2018-07-24T01:09:10.371Z,11.15
2018-07-24T01:11:38.931Z,16.02
2018-07-24T01:14:07.624Z,13.10
2018-07-24T01:16:36.109Z,14.95
2018-07-24T01:19:04.595Z,14.47
2018-07-24T01:21:33.073Z,11.83
2018-07-24T01:24:01.502Z,10.72
2018-07-24T01:26:29.968Z,12.43
2018-07-24T01:28:58.575Z,12.55
2018-07-24T01:31:27.113Z,11.63
2018-07-24T01:33:55.528Z,11.35
2018-07-24T01:36:24.289Z,12.70
2018-07-24T01:38:52.817Z,11.33
2018-07-24T01:41:21.634Z,10.95
2018-07-24T01:43:50.126Z,16.07
2018-07-24T01:46:18.772Z,12.05
2018-07-24T01:48:47.282Z,12.65
2018-07-24T01:51:16.737Z,10.10
2018-07-24T01:53:48.387Z,13.78
2018-07-24T01:56:16.872Z,11.75
2018-07-24T01:58:45.319Z,12.95
2018-07-24T02:01:13.755Z,11.60
2018-07-24T02:03:42.454Z,12.75
2018-07-24T02:06:11.127Z,12.58
2018-07-24T02:08:39.812Z,12.05
2018-07-24T02:11:08.513Z,12.98
2018-07-24T02:13:37.171Z,11.48
2018-07-24T02:16:05.622Z,12.33
2018-07-24T02:18:34.065Z,11.95
2018-07-24T02:21:02.476Z,12.00
2018-07-24T02:23:31.321Z,12.28
2018-07-24T02:25:59.762Z,14.47
2018-07-24T02:28:28.505Z,11.97
2018-07-24T02:30:57.178Z,12.80
2018-07-24T02:33:25.613Z,14.47
2018-07-24T02:35:54.261Z,12.78
2018-07-24T02:38:22.776Z,13.03
2018-07-24T02:40:51.257Z,13.93
2018-07-24T02:43:19.825Z,13.00
2018-07-24T02:45:48.373Z,13.03
2018-07-24T02:48:16.776Z,12.10
2018-07-24T02:50:45.252Z,12.58
2018-07-24T02:53:13.668Z,12.78
2018-07-24T02:55:42.207Z,14.03
2018-07-24T02:58:11.308Z,14.30
2018-07-24T03:00:39.758Z,14.70
2018-07-24T03:03:08.365Z,12.47
2018-07-24T03:05:37.012Z,12.30
2018-07-24T03:08:05.767Z,13.85
2018-07-24T03:10:34.213Z,13.58
2018-07-24T03:13:02.750Z,13.45
2018-07-24T03:15:31.359Z,14.30
2018-07-24T03:17:59.927Z,15.35
2018-07-24T03:20:28.414Z,13.22
2018-07-24T03:22:57.341Z,13.90
2018-07-24T03:25:26.003Z,13.43
2018-07-24T03:27:55.168Z,15.32
2018-07-24T03:30:23.873Z,12.93
2018-07-24T03:32:52.393Z,14.00
2018-07-24T03:35:21.068Z,14.73
2018-07-24T03:37:49.984Z,13.38
2018-07-24T03:40:18.702Z,13.70
2018-07-24T03:42:47.319Z,22.15
2018-07-24T03:45:16.079Z,18.30
2018-07-24T03:47:44.985Z,15.85
2018-07-24T03:50:14.078Z,21.00
2018-07-24T03:52:42.911Z,24.45
2018-07-24T03:55:12.029Z,22.93
2018-07-24T03:57:40.929Z,18.82
2018-07-24T04:00:09.826Z,24.20
2018-07-24T04:02:38.975Z,17.60
2018-07-24T04:05:07.806Z,24.40
2018-07-24T04:07:37.213Z,21.30
2018-07-24T04:10:06.245Z,22.75
2018-07-24T04:12:35.198Z,22.60
2018-07-24T04:15:03.982Z,21.50
2018-07-24T04:17:32.931Z,17.75
2018-07-24T04:20:01.732Z,25.92
2018-07-24T04:22:30.556Z,19.15
2018-07-24T04:24:59.903Z,20.05
2018-07-24T04:27:28.684Z,26.68
2018-07-24T04:29:57.941Z,19.32
2018-07-24T04:32:27.092Z,21.17
2018-07-24T04:34:56.015Z,19.55
2018-07-24T04:37:24.805Z,24.72
2018-07-24T04:39:53.915Z,24.55
2018-07-24T04:42:23.475Z,20.85
2018-07-24T04:44:52.541Z,22.52
2018-07-24T04:47:21.387Z,26.10
2018-07-24T04:49:50.189Z,22.85
2018-07-24T04:52:18.881Z,20.10
2018-07-24T04:54:47.786Z,21.00
2018-07-24T04:57:16.633Z,26.85
2018-07-24T04:59:45.211Z,20.48
2018-07-24T05:02:13.892Z,21.82
2018-07-24T05:04:42.713Z,18.32
2018-07-24T05:07:11.858Z,21.35
2018-07-24T05:09:40.534Z,19.15
2018-07-24T05:12:09.940Z,17.32
2018-07-24T05:14:39.740Z,19.32
2018-07-24T05:17:08.534Z,18.82
2018-07-24T05:19:37.314Z,15.30
2018-07-24T05:22:06.369Z,24.85
2018-07-24T05:24:35.206Z,21.77
2018-07-24T05:27:04.586Z,21.73
2018-07-24T05:29:33.429Z,21.55
2018-07-24T05:32:02.484Z,29.05
2018-07-24T05:34:31.318Z,22.35
2018-07-24T05:37:00.202Z,23.77
2018-07-24T05:39:28.827Z,20.15
2018-07-24T05:41:57.799Z,25.08
2018-07-24T05:44:26.436Z,25.15
2018-07-24T05:46:55.151Z,25.57
2018-07-24T05:49:24.151Z,22.73
2018-07-24T05:51:53.868Z,23.87
2018-07-24T05:54:22.834Z,22.37
2018-07-24T05:56:51.651Z,18.55
2018-07-24T05:59:20.986Z,24.02
2018-07-24T06:01:49.855Z,24.67
2018-07-24T06:04:18.536Z,20.55
2018-07-24T06:06:47.336Z,22.65
2018-07-24T06:09:16.067Z,19.85
2018-07-24T06:11:44.731Z,22.85
2018-07-24T06:14:13.675Z,24.98
2018-07-24T06:16:42.449Z,17.82
2018-07-24T06:19:11.451Z,20.57
2018-07-24T06:21:40.562Z,25.52
2018-07-24T06:24:09.535Z,19.77
2018-07-24T06:26:38.324Z,22.07
2018-07-24T06:29:07.130Z,24.75
2018-07-24T06:31:36.158Z,22.30
2018-07-24T06:34:05.188Z,20.12
2018-07-24T06:36:33.927Z,19.02
2018-07-24T06:39:03.592Z,21.27
2018-07-24T06:41:32.208Z,18.50
2018-07-24T06:44:00.939Z,23.55
2018-07-24T06:46:29.744Z,17.82
2018-07-24T06:48:58.392Z,19.45
2018-07-24T06:51:27.015Z,33.18
2018-07-24T06:53:55.656Z,18.10
2018-07-24T06:56:24.275Z,19.45
2018-07-24T06:58:53.172Z,17.35
2018-07-24T07:01:22.045Z,16.32
2018-07-24T07:03:50.826Z,17.75
2018-07-24T07:06:19.579Z,17.57
2018-07-24T07:08:48.561Z,16.05
2018-07-24T07:11:17.390Z,17.50
2018-07-24T07:13:46.076Z,17.02
2018-07-24T07:16:14.882Z,17.82
2018-07-24T07:18:43.761Z,20.65
2018-07-24T07:21:12.329Z,16.95
2018-07-24T07:23:41.024Z,16.82
2018-07-24T07:26:10.210Z,18.45
2018-07-24T07:28:39.015Z,17.12
2018-07-24T07:31:08.087Z,19.57
2018-07-24T07:33:36.929Z,17.37
2018-07-24T07:36:12.228Z,18.12
2018-07-24T07:38:41.056Z,17.80
2018-07-24T07:41:10.117Z,14.23
2018-07-24T07:43:39.009Z,14.20
2018-07-24T07:46:08.596Z,16.45
2018-07-24T07:48:37.140Z,14.40
2018-07-24T07:51:06.445Z,14.18
2018-07-24T07:53:35.396Z,13.40
2018-07-24T07:56:04.821Z,17.40
2018-07-24T07:58:33.732Z,15.00
2018-07-24T08:01:02.393Z,12.33
2018-07-24T08:03:31.376Z,13.08
2018-07-24T08:05:59.961Z,12.23
2018-07-24T08:08:28.677Z,12.60
2018-07-24T08:10:57.419Z,15.20
2018-07-24T08:13:26.319Z,11.90
2018-07-24T08:15:55.094Z,10.88
2018-07-24T08:18:23.736Z,11.33
2018-07-24T08:20:52.442Z,13.93
2018-07-24T08:23:21.167Z,14.68
2018-07-24T08:25:49.839Z,11.75
2018-07-24T08:28:18.969Z,12.15
2018-07-24T08:30:47.618Z,14.47
2018-07-24T08:33:16.552Z,12.47
2018-07-24T08:35:45.802Z,11.70
2018-07-24T08:38:14.369Z,8.60
2018-07-24T08:40:43.084Z,8.93
2018-07-24T08:43:12.900Z,7.60
2018-07-24T08:45:41.695Z,8.03
2018-07-24T08:48:10.464Z,6.15
2018-07-24T08:50:39.370Z,6.00
2018-07-24T08:53:09.161Z,5.58
2018-07-24T08:55:38.805Z,8.95
2018-07-24T08:58:07.716Z,8.83
2018-07-24T09:00:36.719Z,9.30
2018-07-24T09:03:05.885Z,5.70
2018-07-24T09:05:34.733Z,5.97
2018-07-24T09:08:03.546Z,6.33
2018-07-24T09:10:32.368Z,7.62
2018-07-24T09:13:01.490Z,5.37
2018-07-24T09:15:30.357Z,5.42
2018-07-24T09:17:59.112Z,5.97
2018-07-24T09:20:28.268Z,6.12
2018-07-24T09:22:57.963Z,6.37
2018-07-24T09:25:27.258Z,5.80
2018-07-24T09:27:56.099Z,7.97
2018-07-24T09:30:24.911Z,6.40
2018-07-24T09:32:53.847Z,5.15
2018-07-24T09:35:23.482Z,5.30
2018-07-24T09:37:52.233Z,5.37
2018-07-24T09:40:21.131Z,5.17
2018-07-24T09:42:50.202Z,4.78
2018-07-24T09:45:18.796Z,4.90
2018-07-24T09:47:48.377Z,4.65
2018-07-24T09:50:16.937Z,4.67
2018-07-24T09:52:45.658Z,5.10
2018-07-24T09:55:14.649Z,5.63
2018-07-24T09:57:43.611Z,7.90
2018-07-24T10:00:12.649Z,6.25
2018-07-24T10:02:44.615Z,4.95
2018-07-24T10:05:20.054Z,5.30
2018-07-24T10:07:48.984Z,5.25
2018-07-24T10:10:17.625Z,7.47
2018-07-24T10:12:46.328Z,4.30
2018-07-24T10:15:15.128Z,5.27
2018-07-24T10:17:43.883Z,4.75
2018-07-24T10:20:13.573Z,4.73
2018-07-24T10:22:45.572Z,4.25
2018-07-24T10:25:14.524Z,4.10
2018-07-24T10:27:43.312Z,4.87
2018-07-24T10:30:12.084Z,4.25
2018-07-24T10:32:40.804Z,6.87
2018-07-24T10:35:09.821Z,5.28
2018-07-24T10:37:38.474Z,4.53
2018-07-24T10:40:07.275Z,4.65
2018-07-24T10:42:35.903Z,4.22
2018-07-24T10:45:05.420Z,4.33
2018-07-24T10:47:34.303Z,5.47
2018-07-24T10:50:02.919Z,4.20
2018-07-24T10:52:31.731Z,4.62
2018-07-24T10:55:00.702Z,4.20
2018-07-24T10:57:29.593Z,4.33
2018-07-24T10:59:58.546Z,3.95
2018-07-24T11:02:27.474Z,4.50
2018-07-24T11:04:56.458Z,6.75
2018-07-24T11:07:25.362Z,4.50
2018-07-24T11:09:59.484Z,3.80
2018-07-24T11:12:28.761Z,4.50
2018-07-24T11:14:57.583Z,6.03
2018-07-24T11:17:26.482Z,7.03
2018-07-24T11:19:55.251Z,4.83
2018-07-24T11:22:24.281Z,4.55
2018-07-24T11:24:53.379Z,4.28
2018-07-24T11:27:22.150Z,4.60
2018-07-24T11:29:50.711Z,5.87
2018-07-24T11:32:19.728Z,5.10
2018-07-24T11:34:48.635Z,4.50
2018-07-24T11:37:18.333Z,4.62
2018-07-24T11:39:47.168Z,5.53
2018-07-24T11:42:15.981Z,4.95
2018-07-24T11:44:45.027Z,4.65
2018-07-24T11:47:14.001Z,5.00
2018-07-24T11:49:43.071Z,4.20
2018-07-24T11:52:12.169Z,4.12
2018-07-24T11:54:41.226Z,4.28
2018-07-24T11:57:10.511Z,4.00
2018-07-24T11:59:39.666Z,7.53
2018-07-24T12:02:08.606Z,8.58
2018-07-24T12:04:37.306Z,5.17
2018-07-24T12:07:06.474Z,4.90
2018-07-24T12:09:35.271Z,6.50
2018-07-24T12:12:07.106Z,4.92
2018-07-24T12:14:36.068Z,4.65
2018-07-24T12:17:07.893Z,4.50
2018-07-24T12:19:37.140Z,4.72
2018-07-24T12:22:06.129Z,4.28
2018-07-24T12:24:35.051Z,4.67
2018-07-24T12:27:10.438Z,5.50
2018-07-24T12:29:45.635Z,3.67
2018-07-24T12:32:15.097Z,5.08
2018-07-24T12:34:43.871Z,6.50
2018-07-24T12:37:13.448Z,4.37
2018-07-24T12:39:42.444Z,4.25
2018-07-24T12:42:12.018Z,4.55
2018-07-24T12:44:41.013Z,5.65
2018-07-24T12:47:09.659Z,5.17
2018-07-24T12:49:38.503Z,4.40
2018-07-24T12:52:07.487Z,4.03
2018-07-24T12:54:36.293Z,3.85
2018-07-24T12:57:04.972Z,4.20
2018-07-24T12:59:33.567Z,5.05
2018-07-24T13:02:02.498Z,5.42
2018-07-24T13:04:31.377Z,5.65
2018-07-24T13:07:00.367Z,4.80
2018-07-24T13:09:29.303Z,4.47
2018-07-24T13:11:58.522Z,4.62
2018-07-24T13:14:27.734Z,5.12
2018-07-24T13:16:56.599Z,10.20
2018-07-24T13:19:25.313Z,5.75
2018-07-24T13:21:54.202Z,5.97
2018-07-24T13:24:23.288Z,6.05
2018-07-24T13:26:52.066Z,4.72
2018-07-24T13:29:21.040Z,3.85
2018-07-24T13:31:49.815Z,6.43
2018-07-24T13:34:18.746Z,6.17
2018-07-24T13:36:47.921Z,5.30
2018-07-24T13:39:16.925Z,3.87
2018-07-24T13:41:45.618Z,6.35
2018-07-24T13:44:14.814Z,5.40
2018-07-24T13:46:43.620Z,4.97
2018-07-24T13:49:12.467Z,4.95
2018-07-24T13:51:41.251Z,3.93
2018-07-24T13:54:10.190Z,4.22
2018-07-24T13:56:38.903Z,4.80
2018-07-24T13:59:07.771Z,5.33
2018-07-24T14:01:36.354Z,5.83
2018-07-24T14:04:05.352Z,5.55
2018-07-24T14:06:34.065Z,8.45
2018-07-24T14:09:02.904Z,4.78
2018-07-24T14:11:31.777Z,4.40
2018-07-24T14:14:00.587Z,4.87
2018-07-24T14:16:29.292Z,5.70
2018-07-24T14:18:58.495Z,7.35
2018-07-24T14:21:27.193Z,5.27
2018-07-24T14:23:56.078Z,5.55
2018-07-24T14:26:25.328Z,7.13
2018-07-24T14:28:54.194Z,5.12
2018-07-24T14:31:22.872Z,6.15
2018-07-24T14:33:51.978Z,4.97
2018-07-24T14:36:21.145Z,5.35
2018-07-24T14:38:49.794Z,7.03
2018-07-24T14:41:19.026Z,4.25
2018-07-24T14:43:48.936Z,5.70
2018-07-24T14:46:18.791Z,4.28
2018-07-24T14:48:47.466Z,3.92
2018-07-24T14:51:16.376Z,5.95
2018-07-24T14:53:45.372Z,6.03
2018-07-24T14:56:14.152Z,5.30
2018-07-24T14:58:43.468Z,5.25
2018-07-24T15:01:12.569Z,4.95
2018-07-24T15:03:41.875Z,5.75
2018-07-24T15:06:10.926Z,5.77
2018-07-24T15:08:40.054Z,21.37
2018-07-24T15:11:08.709Z,4.80
2018-07-24T15:13:37.398Z,5.08
2018-07-24T15:16:06.569Z,4.87
2018-07-24T15:18:35.561Z,5.08
2018-07-24T15:21:04.608Z,4.80
2018-07-24T15:23:33.323Z,4.62
2018-07-24T15:26:02.241Z,5.33
2018-07-24T15:28:31.276Z,4.55
2018-07-24T15:30:59.889Z,4.67
2018-07-24T15:33:33.645Z,5.08
2018-07-24T15:36:02.755Z,5.30
2018-07-24T15:38:31.750Z,6.40
2018-07-24T15:41:00.617Z,7.45
2018-07-24T15:43:29.992Z,4.75
2018-07-24T15:45:59.155Z,4.78
2018-07-24T15:48:28.198Z,4.85
2018-07-24T15:50:57.281Z,5.42
2018-07-24T15:53:26.187Z,5.40
2018-07-24T15:55:55.323Z,4.53
2018-07-24T15:58:24.293Z,4.42
2018-07-24T16:00:52.980Z,3.98
2018-07-24T16:03:21.976Z,4.92
2018-07-24T16:05:51.511Z,4.55
2018-07-24T16:08:20.373Z,5.33
2018-07-24T16:10:49.544Z,6.57
2018-07-24T16:13:18.364Z,4.78
2018-07-24T16:15:48.659Z,4.87
2018-07-24T16:18:17.562Z,5.37
2018-07-24T16:20:46.604Z,4.03
2018-07-24T16:23:15.303Z,4.40
2018-07-24T16:25:44.442Z,4.80
2018-07-24T16:28:13.345Z,4.70
2018-07-24T16:30:42.919Z,7.50
2018-07-24T16:33:12.013Z,5.62
2018-07-24T16:35:41.027Z,3.90
2018-07-24T16:38:10.368Z,4.70
2018-07-24T16:40:39.205Z,6.40
2018-07-24T16:43:08.143Z,5.67
2018-07-24T16:45:36.830Z,5.33
2018-07-24T16:48:05.659Z,4.00
2018-07-24T16:50:34.768Z,3.98
2018-07-24T16:53:03.761Z,5.12
2018-07-24T16:55:32.803Z,6.00
2018-07-24T16:58:02.594Z,5.85
2018-07-24T17:00:31.207Z,5.20
2018-07-24T17:03:00.008Z,4.97
2018-07-24T17:05:28.806Z,5.80
2018-07-24T17:07:57.774Z,5.05
2018-07-24T17:10:29.764Z,5.12
2018-07-24T17:12:59.001Z,5.55
2018-07-24T17:15:28.293Z,6.10
2018-07-24T17:17:57.541Z,7.22
2018-07-24T17:20:26.287Z,7.58
2018-07-24T17:23:01.649Z,5.92
2018-07-24T17:25:32.119Z,5.37
2018-07-24T17:28:00.794Z,5.50
2018-07-24T17:30:29.662Z,5.70
2018-07-24T17:32:58.479Z,5.40
2018-07-24T17:35:27.745Z,10.35
2018-07-24T17:37:56.348Z,5.40
2018-07-24T17:40:25.287Z,7.00
2018-07-24T17:42:54.043Z,5.53
2018-07-24T17:45:23.030Z,5.20
2018-07-24T17:47:52.086Z,5.20
2018-07-24T17:50:20.953Z,11.83
2018-07-24T17:52:49.638Z,5.30
2018-07-24T17:55:18.602Z,6.23
2018-07-24T17:57:47.572Z,5.90
2018-07-24T18:00:16.206Z,6.43
2018-07-24T18:02:45.277Z,6.40
2018-07-24T18:05:14.437Z,6.83
2018-07-24T18:07:43.966Z,6.15
2018-07-24T18:10:12.714Z,6.37
2018-07-24T18:12:41.433Z,6.05
2018-07-24T18:15:10.235Z,5.78
2018-07-24T18:17:39.746Z,5.60
2018-07-24T18:20:08.685Z,7.87
2018-07-24T18:22:38.219Z,5.70
2018-07-24T18:25:06.941Z,5.83
2018-07-24T18:27:35.718Z,9.20
2018-07-24T18:30:05.114Z,9.90
2018-07-24T18:32:33.959Z,5.97
2018-07-24T18:35:02.613Z,7.72
2018-07-24T18:37:32.105Z,6.53
2018-07-24T18:40:01.073Z,6.42
2018-07-24T18:42:30.507Z,11.48
2018-07-24T18:44:59.109Z,5.87
2018-07-24T18:47:27.641Z,5.87
2018-07-24T18:49:56.820Z,7.75
2018-07-24T18:52:25.898Z,7.90
2018-07-24T18:54:54.628Z,9.28
2018-07-24T18:57:24.110Z,7.15
2018-07-24T18:59:53.093Z,8.83
2018-07-24T19:02:22.279Z,5.55
2018-07-24T19:04:51.415Z,5.22
2018-07-24T19:07:20.009Z,6.58
2018-07-24T19:09:48.981Z,6.10
2018-07-24T19:12:18.091Z,6.00
2018-07-24T19:14:47.420Z,6.62
2018-07-24T19:17:16.289Z,6.40
2018-07-24T19:19:45.306Z,7.12
2018-07-24T19:22:14.237Z,5.97
2018-07-24T19:24:43.393Z,5.75
2018-07-24T19:27:12.453Z,6.42
2018-07-24T19:29:41.677Z,5.17
2018-07-24T19:32:13.679Z,7.40
2018-07-24T19:34:42.626Z,6.03
2018-07-24T19:37:17.051Z,5.60
2018-07-24T19:39:46.366Z,8.45
2018-07-24T19:42:15.434Z,5.35
2018-07-24T19:44:44.394Z,6.60
2018-07-24T19:47:13.396Z,5.80
2018-07-24T19:49:42.338Z,5.92
2018-07-24T19:52:11.388Z,6.05
2018-07-24T19:54:40.074Z,5.50
2018-07-24T19:57:09.843Z,6.05
2018-07-24T19:59:38.304Z,5.90
2018-07-24T20:02:07.086Z,6.28
2018-07-24T20:04:36.221Z,6.60
2018-07-24T20:07:05.090Z,17.63
2018-07-24T20:09:33.880Z,5.58
2018-07-24T20:12:02.719Z,5.78
2018-07-24T20:14:31.163Z,7.97
2018-07-24T20:16:59.700Z,5.40
2018-07-24T20:19:28.124Z,8.08
2018-07-24T20:21:56.654Z,6.25
2018-07-24T20:24:25.377Z,6.08
2018-07-24T20:26:53.985Z,5.33
2018-07-24T20:29:22.653Z,5.40
2018-07-24T20:31:51.442Z,6.55
2018-07-24T20:34:20.030Z,6.83
2018-07-24T20:36:49.016Z,9.00
2018-07-24T20:39:17.492Z,6.28
2018-07-24T20:41:46.176Z,5.47
2018-07-24T20:44:14.943Z,5.22
2018-07-24T20:46:43.660Z,7.22
2018-07-24T20:49:12.125Z,7.78
2018-07-24T20:51:40.809Z,7.92
2018-07-24T20:54:09.976Z,5.35
2018-07-24T20:56:39.293Z,7.10
2018-07-24T20:59:07.946Z,5.78
2018-07-24T21:01:36.899Z,7.42
2018-07-24T21:04:05.922Z,6.42
2018-07-24T21:06:35.228Z,8.38
2018-07-24T21:09:06.768Z,6.28
2018-07-24T21:11:36.934Z,14.33
2018-07-24T21:14:05.684Z,7.58
2018-07-24T21:16:34.495Z,5.58
2018-07-24T21:19:03.122Z,8.18
2018-07-24T21:21:31.749Z,8.65
2018-07-24T21:24:00.933Z,8.05
2018-07-24T21:26:29.476Z,6.50
2018-07-24T21:28:58.360Z,7.10
2018-07-24T21:31:27.089Z,12.55
2018-07-24T21:33:55.632Z,10.32
2018-07-24T21:36:24.278Z,8.50
2018-07-24T21:38:52.989Z,11.83
2018-07-24T21:41:21.525Z,6.85
2018-07-24T21:43:50.044Z,7.35
2018-07-24T21:46:18.630Z,11.18
2018-07-24T21:48:47.084Z,9.70
2018-07-24T21:51:15.821Z,7.17
2018-07-24T21:53:44.405Z,7.90
2018-07-24T21:56:13.071Z,6.30
2018-07-24T21:58:41.595Z,8.03
2018-07-24T22:01:13.337Z,7.03
2018-07-24T22:03:42.911Z,7.33
2018-07-24T22:06:11.830Z,8.58
2018-07-24T22:08:40.810Z,9.78
2018-07-24T22:11:09.443Z,9.85
2018-07-24T22:13:38.173Z,9.20
2018-07-24T22:16:06.752Z,6.93
2018-07-24T22:18:35.338Z,6.53
2018-07-24T22:21:04.045Z,11.73
2018-07-24T22:23:32.557Z,7.12
2018-07-24T22:26:01.209Z,7.42
2018-07-24T22:28:29.697Z,8.03
2018-07-24T22:30:59.343Z,6.78
2018-07-24T22:33:27.870Z,8.48
2018-07-24T22:35:56.357Z,9.95
2018-07-24T22:38:24.894Z,7.20
2018-07-24T22:40:53.436Z,7.35
2018-07-24T22:43:21.908Z,7.80
2018-07-24T22:45:50.578Z,7.47
2018-07-24T22:48:19.165Z,9.18
2018-07-24T22:50:47.893Z,7.03
2018-07-24T22:53:16.404Z,8.18
2018-07-24T22:55:44.884Z,7.42
2018-07-24T22:58:13.532Z,7.28
2018-07-24T23:00:42.096Z,8.00
2018-07-24T23:03:10.552Z,9.30
2018-07-24T23:05:39.045Z,8.38
2018-07-24T23:08:07.569Z,8.78
2018-07-24T23:10:36.013Z,8.30
2018-07-24T23:13:05.426Z,9.18
2018-07-24T23:15:33.944Z,9.25
2018-07-24T23:18:02.593Z,10.45
2018-07-24T23:20:31.108Z,8.23
2018-07-24T23:22:59.582Z,9.80
2018-07-24T23:25:28.039Z,9.60
2018-07-24T23:27:56.461Z,8.83
2018-07-24T23:30:25.028Z,10.50
2018-07-24T23:32:53.581Z,13.22
2018-07-24T23:35:22.037Z,9.53
2018-07-24T23:37:50.475Z,9.45
2018-07-24T23:40:19.076Z,8.53
2018-07-24T23:42:47.583Z,9.10
2018-07-24T23:45:16.124Z,9.10
2018-07-24T23:47:44.978Z,9.03
2018-07-24T23:50:13.715Z,7.73
2018-07-24T23:52:42.410Z,8.23
2018-07-24T23:55:10.903Z,9.98
2018-07-24T23:57:39.364Z,9.18
